Time;durP1;ratioP1;P1;durP2;ratioP2;P2;SDS_P1;SDS_P2;PMS_P1;PMS_P2;Temp;Humidity;BMP_temperature;BMP_pressure;BME280_temperature;BME280_humidity;BME280_pressure;Samples;Min_cycle;Max_cycle;Signal;HPM_P1;HPM_P2
2023/04/30 00:00:32;;;;;;;3.37;1.03;;;16.10;99.90;;;;;;5073908;28;20179;-76
2023/04/30 00:02:59;;;;;;;1.27;1.00;;;16.00;99.90;;;;;;5075458;28;20239;-69
2023/04/30 00:05:26;;;;;;;1.70;0.97;;;16.10;99.90;;;;;;5074199;28;20266;-72
2023/04/30 00:07:54;;;;;;;1.80;0.90;;;16.10;99.90;;;;;;5068279;28;20168;-72
2023/04/30 00:10:21;;;;;;;2.63;1.20;;;16.20;99.90;;;;;;5072039;28;20226;-71
2023/04/30 00:12:49;;;;;;;2.50;1.57;;;16.20;99.90;;;;;;5072322;28;20179;-71
2023/04/30 00:15:16;;;;;;;1.87;1.50;;;16.20;99.90;;;;;;5071926;28;20188;-71
2023/04/30 00:17:44;;;;;;;2.60;1.70;;;16.30;99.90;;;;;;5072387;28;20268;-72
2023/04/30 00:20:12;;;;;;;2.27;1.73;;;16.30;99.90;;;;;;5072421;28;20512;-72
2023/04/30 00:22:40;;;;;;;2.70;1.60;;;16.20;99.90;;;;;;5071722;28;20247;-73
2023/04/30 00:25:08;;;;;;;2.23;1.50;;;16.10;99.90;;;;;;5072428;28;20176;-73
2023/04/30 00:27:35;;;;;;;1.43;1.10;;;16.10;99.90;;;;;;5071220;28;20195;-71
2023/04/30 00:30:03;;;;;;;2.07;1.03;;;16.00;99.90;;;;;;5071703;28;20314;-72
2023/04/30 00:32:30;;;;;;;1.23;0.63;;;15.90;99.90;;;;;;5072123;28;20191;-72
2023/04/30 00:34:58;;;;;;;0.60;0.60;;;15.80;99.90;;;;;;5072142;28;20188;-72
2023/04/30 00:37:25;;;;;;;0.97;0.60;;;15.70;99.90;;;;;;5071385;28;21060;-72
2023/04/30 00:39:52;;;;;;;1.40;0.60;;;15.80;99.90;;;;;;5072095;28;20186;-73
2023/04/30 00:42:20;;;;;;;1.07;0.53;;;15.70;99.90;;;;;;5072055;28;20176;-73
2023/04/30 00:44:47;;;;;;;0.93;0.80;;;15.70;99.90;;;;;;5071481;28;20293;-71
2023/04/30 00:47:15;;;;;;;0.57;0.40;;;15.80;99.90;;;;;;5071789;28;20215;-71
2023/04/30 00:49:42;;;;;;;1.70;0.73;;;15.90;99.90;;;;;;5071537;28;20186;-72
2023/04/30 00:52:10;;;;;;;1.53;0.50;;;15.80;99.90;;;;;;5071485;28;20289;-71
2023/04/30 00:54:37;;;;;;;0.67;0.50;;;15.80;99.90;;;;;;5071617;28;20233;-72
2023/04/30 00:57:06;;;;;;;0.40;0.40;;;15.80;99.90;;;;;;5071692;28;20583;-71
2023/04/30 00:59:34;;;;;;;2.40;0.60;;;15.90;99.90;;;;;;5071104;28;20645;-72
2023/04/30 01:02:03;;;;;;;0.60;0.50;;;16.00;99.90;;;;;;5071567;28;20183;-70
2023/04/30 01:04:31;;;;;;;1.20;0.33;;;16.10;99.90;;;;;;5071512;28;20168;-71
2023/04/30 01:07:03;;;;;;;0.40;0.30;;;16.30;99.90;;;;;;5070753;28;20184;-72
2023/04/30 01:09:30;;;;;;;0.33;0.30;;;16.40;99.90;;;;;;5071178;28;20185;-71
2023/04/30 01:12:21;;;;;;;0.40;0.40;;;16.60;99.90;;;;;;5072607;28;20183;-71
2023/04/30 01:15:06;;;;;;;0.33;0.33;;;16.70;99.90;;;;;;5070854;28;20765;-71
2023/04/30 01:17:55;;;;;;;0.30;0.30;;;16.90;99.90;;;;;;5071422;28;20321;-72
2023/04/30 01:20:23;;;;;;;0.50;0.40;;;17.10;99.90;;;;;;5071193;28;20184;-70
2023/04/30 01:22:57;;;;;;;0.30;0.30;;;17.60;99.90;;;;;;5070925;28;20183;-72
2023/04/30 01:25:40;;;;;;;0.57;0.30;;;18.40;99.90;;;;;;5071379;28;20197;-71
2023/04/30 01:28:13;;;;;;;1.73;0.33;;;18.90;99.90;;;;;;5070786;28;20204;-71
2023/04/30 01:30:45;;;;;;;2.27;0.40;;;19.20;99.90;;;;;;5070507;28;20227;-71
2023/04/30 01:33:13;;;;;;;0.40;0.40;;;19.00;99.90;;;;;;5071095;28;20179;-72
2023/04/30 01:36:04;;;;;;;0.80;0.30;;;19.40;99.90;;;;;;5071197;28;20179;-72
2023/04/30 01:38:56;;;;;;;0.53;0.30;;;19.80;99.90;;;;;;5070695;28;20229;-71
2023/04/30 01:41:26;;;;;;;0.30;0.30;;;20.20;99.90;;;;;;5071304;28;20180;-72
2023/04/30 01:44:18;;;;;;;1.30;0.30;;;20.90;99.90;;;;;;5070833;28;20532;-72
2023/04/30 01:46:55;;;;;;;0.50;0.40;;;21.00;99.90;;;;;;5068705;28;20750;-71
2023/04/30 01:49:29;;;;;;;0.40;0.40;;;20.90;99.90;;;;;;5071108;28;20262;-72
2023/04/30 01:52:31;;;;;;;0.87;0.20;;;20.60;99.90;;;;;;5070501;28;20340;-70
2023/04/30 01:55:04;;;;;;;0.30;0.30;;;20.00;99.90;;;;;;5050866;28;20186;-74
2023/04/30 01:57:42;;;;;;;0.23;0.23;;;19.60;99.90;;;;;;5051006;28;20212;-74
2023/04/30 02:00:10;;;;;;;0.30;0.30;;;19.60;99.90;;;;;;5050630;28;20168;-72
2023/04/30 02:02:39;;;;;;;0.50;0.50;;;19.50;99.90;;;;;;5050988;28;20204;-71
2023/04/30 02:05:07;;;;;;;0.60;0.37;;;19.50;99.90;;;;;;5063896;28;20179;-70
2023/04/30 02:07:46;;;;;;;0.30;0.30;;;19.50;99.90;;;;;;5070701;28;20544;-72
2023/04/30 02:10:14;;;;;;;1.50;0.33;;;19.50;99.90;;;;;;5071857;28;20173;-72
2023/04/30 02:12:41;;;;;;;0.40;0.40;;;19.50;99.90;;;;;;5073869;28;20238;-72
2023/04/30 02:15:09;;;;;;;0.43;0.30;;;20.40;99.90;;;;;;5074151;28;20180;-71
2023/04/30 02:17:37;;;;;;;1.03;0.20;;;20.80;99.90;;;;;;5074440;28;20213;-72
2023/04/30 02:20:05;;;;;;;0.83;0.30;;;21.30;99.90;;;;;;5074599;28;20641;-72
2023/04/30 02:22:32;;;;;;;0.30;0.30;;;21.50;99.90;;;;;;5074018;28;20176;-72
2023/04/30 02:25:00;;;;;;;0.40;0.40;;;21.40;99.90;;;;;;5074365;28;20176;-72
2023/04/30 02:27:31;;;;;;;0.47;0.30;;;21.80;99.90;;;;;;5074305;28;20179;-72
2023/04/30 02:29:59;;;;;;;0.47;0.40;;;22.10;99.90;;;;;;5073108;28;20191;-73
2023/04/30 02:32:27;;;;;;;1.20;0.60;;;22.10;99.90;;;;;;5086902;28;20191;-71
2023/04/30 02:34:54;;;;;;;0.60;0.50;;;22.20;99.90;;;;;;5094090;28;20187;-72
2023/04/30 02:37:22;;;;;;;0.30;0.30;;;22.60;99.90;;;;;;5093767;28;20230;-71
2023/04/30 02:39:50;;;;;;;0.50;0.33;;;22.90;99.90;;;;;;5094463;28;20254;-71
2023/04/30 02:42:18;;;;;;;1.13;0.27;;;22.80;99.90;;;;;;5094245;28;20181;-71
2023/04/30 02:44:45;;;;;;;0.40;0.30;;;22.80;99.90;;;;;;5093752;28;20185;-71
2023/04/30 02:47:12;;;;;;;0.77;0.20;;;22.70;99.90;;;;;;5093117;28;20191;-71
2023/04/30 02:49:40;;;;;;;0.80;0.50;;;22.30;99.90;;;;;;5093012;28;20205;-71
2023/04/30 02:52:08;;;;;;;0.40;0.40;;;21.60;99.90;;;;;;5093808;28;20231;-71
2023/04/30 02:54:36;;;;;;;0.50;0.30;;;21.60;99.90;;;;;;5094148;28;20217;-70
2023/04/30 02:57:03;;;;;;;2.43;0.20;;;22.10;99.90;;;;;;5093940;28;20218;-75
2023/04/30 02:59:31;;;;;;;0.20;0.20;;;22.40;99.90;;;;;;5080039;28;20185;-78
2023/04/30 03:01:58;;;;;;;2.40;0.30;;;22.80;99.90;;;;;;5076647;28;20192;-69
2023/04/30 03:04:26;;;;;;;0.57;0.27;;;23.20;99.90;;;;;;5072512;28;20556;-68
2023/04/30 03:06:53;;;;;;;0.20;0.20;;;22.70;99.90;;;;;;5071837;28;20199;-76
2023/04/30 03:09:21;;;;;;;0.20;0.20;;;22.70;99.90;;;;;;5071695;28;20544;-74
2023/04/30 03:11:48;;;;;;;0.70;0.30;;;22.90;99.90;;;;;;5062668;28;20176;-76
2023/04/30 03:14:16;;;;;;;0.20;0.20;;;22.50;99.90;;;;;;5073080;28;20695;-75
2023/04/30 03:16:43;;;;;;;0.20;0.20;;;22.80;99.90;;;;;;5073503;28;20204;-75
2023/04/30 03:19:11;;;;;;;0.20;0.20;;;23.00;99.90;;;;;;5073424;28;20171;-75
2023/04/30 03:21:38;;;;;;;0.27;0.20;;;23.30;99.90;;;;;;5073004;28;20183;-74
2023/04/30 03:24:07;;;;;;;3.23;0.30;;;23.50;99.90;;;;;;5073191;28;20179;-74
2023/04/30 03:26:34;;;;;;;0.20;0.20;;;23.00;99.90;;;;;;5073361;28;20172;-73
2023/04/30 03:29:01;;;;;;;0.40;0.30;;;22.90;99.90;;;;;;5071358;28;20184;-73
2023/04/30 03:31:29;;;;;;;0.40;0.20;;;23.20;99.90;;;;;;5073446;28;20184;-72
2023/04/30 03:33:56;;;;;;;0.40;0.30;;;23.40;99.90;;;;;;5073282;28;20629;-74
2023/04/30 03:36:24;;;;;;;0.23;0.23;;;23.40;99.90;;;;;;5072640;28;20187;-75
2023/04/30 03:38:51;;;;;;;0.20;0.20;;;23.40;99.90;;;;;;5071648;28;20245;-73
2023/04/30 03:41:19;;;;;;;0.20;0.20;;;23.20;99.90;;;;;;5071617;28;20186;-74
2023/04/30 03:43:46;;;;;;;0.20;0.20;;;23.40;99.90;;;;;;5070852;28;20184;-73
2023/04/30 03:46:14;;;;;;;0.33;0.30;;;23.20;99.90;;;;;;5072905;28;20229;-72
2023/04/30 03:48:41;;;;;;;0.20;0.20;;;23.30;99.90;;;;;;5072854;28;20625;-74
2023/04/30 03:51:09;;;;;;;0.50;0.30;;;23.30;99.90;;;;;;5071837;28;20184;-73
2023/04/30 03:53:36;;;;;;;1.37;0.70;;;23.50;99.90;;;;;;5071424;28;20239;-74
2023/04/30 03:56:04;;;;;;;3.33;1.30;;;23.30;99.90;;;;;;5072054;28;20176;-75
2023/04/30 03:58:32;;;;;;;0.77;0.50;;;23.10;99.90;;;;;;5071992;28;20296;-75
2023/04/30 04:00:59;;;;;;;0.50;0.50;;;22.60;99.90;;;;;;5072544;28;20255;-73
2023/04/30 04:03:27;;;;;;;0.80;0.33;;;22.30;99.90;;;;;;5072457;28;20187;-74
2023/04/30 04:05:54;;;;;;;0.30;0.30;;;21.80;99.90;;;;;;5071654;28;20184;-76
2023/04/30 04:08:21;;;;;;;0.60;0.40;;;21.70;99.90;;;;;;5071104;28;20274;-75
2023/04/30 04:10:49;;;;;;;0.23;0.20;;;21.90;99.90;;;;;;5072233;28;20183;-76
2023/04/30 04:13:16;;;;;;;1.90;0.20;;;22.20;99.90;;;;;;5071754;28;20577;-75
2023/04/30 04:15:44;;;;;;;0.20;0.20;;;22.30;99.90;;;;;;5071889;28;20176;-75
2023/04/30 04:18:11;;;;;;;2.57;0.47;;;22.10;99.90;;;;;;5071995;28;20211;-74
2023/04/30 04:20:42;;;;;;;1.90;0.20;;;22.10;99.90;;;;;;5071552;28;20290;-75
2023/04/30 04:23:10;;;;;;;0.30;0.30;;;22.00;99.90;;;;;;5072304;28;20713;-76
2023/04/30 04:25:38;;;;;;;0.20;0.20;;;21.50;99.90;;;;;;5071694;28;20532;-75
2023/04/30 04:28:05;;;;;;;0.20;0.20;;;21.30;99.90;;;;;;5071821;28;20176;-76
2023/04/30 04:30:33;;;;;;;0.20;0.20;;;21.50;99.90;;;;;;5071558;28;20186;-73
2023/04/30 04:33:00;;;;;;;0.23;0.23;;;21.90;99.90;;;;;;5071324;28;20556;-75
2023/04/30 04:35:28;;;;;;;0.30;0.20;;;22.10;99.90;;;;;;5071517;28;20209;-75
2023/04/30 04:37:55;;;;;;;0.30;0.30;;;22.10;99.90;;;;;;5071468;28;20655;-74
2023/04/30 04:40:23;;;;;;;0.43;0.40;;;21.60;99.90;;;;;;5071777;28;20220;-77
2023/04/30 04:42:51;;;;;;;0.40;0.40;;;21.10;99.90;;;;;;5071527;28;20178;-76
2023/04/30 04:45:21;;;;;;;1.00;0.80;;;20.70;99.90;;;;;;5071417;28;20172;-78
2023/04/30 04:47:48;;;;;;;1.13;1.00;;;20.40;99.90;;;;;;5071889;28;20595;-75
2023/04/30 04:50:16;;;;;;;0.60;0.60;;;20.20;99.90;;;;;;5070950;28;20176;-74
2023/04/30 04:52:44;;;;;;;0.73;0.60;;;20.30;99.90;;;;;;5071860;28;20267;-76
2023/04/30 04:55:11;;;;;;;0.67;0.37;;;20.60;99.90;;;;;;5074634;28;20176;-75
2023/04/30 04:57:39;;;;;;;0.30;0.30;;;20.90;99.90;;;;;;5071022;28;20211;-72
2023/04/30 05:00:09;;;;;;;0.30;0.30;;;21.00;99.90;;;;;;5069357;28;20786;-76
2023/04/30 05:02:36;;;;;;;0.57;0.57;;;21.50;99.90;;;;;;5071459;28;20182;-75
2023/04/30 05:05:03;;;;;;;0.93;0.30;;;21.70;99.90;;;;;;5070719;28;20175;-75
2023/04/30 05:07:31;;;;;;;0.40;0.40;;;21.70;99.90;;;;;;5071641;28;20225;-75
2023/04/30 05:09:58;;;;;;;0.33;0.33;;;21.30;99.90;;;;;;5072016;28;20175;-74
2023/04/30 05:12:26;;;;;;;0.30;0.30;;;21.00;99.90;;;;;;5070810;28;20270;-76
2023/04/30 05:14:54;;;;;;;0.40;0.40;;;20.70;99.90;;;;;;5071421;28;20661;-74
2023/04/30 05:17:22;;;;;;;0.60;0.60;;;21.00;99.90;;;;;;5071034;28;20261;-76
2023/04/30 05:19:50;;;;;;;0.30;0.30;;;20.90;99.90;;;;;;5067395;28;20174;-73
2023/04/30 05:22:18;;;;;;;0.40;0.30;;;20.50;99.90;;;;;;5071301;28;20185;-74
2023/04/30 05:24:45;;;;;;;0.30;0.30;;;20.20;99.90;;;;;;5071394;28;21016;-76
2023/04/30 05:27:13;;;;;;;0.30;0.30;;;19.90;99.90;;;;;;5070653;28;20612;-74
2023/04/30 05:29:41;;;;;;;1.83;0.40;;;19.70;99.90;;;;;;5071098;28;20188;-73
2023/04/30 05:32:09;;;;;;;0.30;0.30;;;19.60;99.90;;;;;;5071269;28;20180;-75
2023/04/30 05:34:37;;;;;;;0.40;0.40;;;19.50;99.90;;;;;;5070800;28;20190;-73
2023/04/30 05:37:04;;;;;;;0.50;0.50;;;19.40;99.90;;;;;;5069906;28;20675;-76
2023/04/30 05:39:32;;;;;;;0.83;0.40;;;19.50;99.90;;;;;;5071115;28;20647;-79
2023/04/30 05:42:01;;;;;;;0.67;0.40;;;19.60;99.90;;;;;;5070746;28;20186;-72
2023/04/30 05:44:31;;;;;;;0.90;0.70;;;19.60;99.90;;;;;;5071136;28;20195;-75
2023/04/30 05:46:59;;;;;;;0.30;0.30;;;19.60;99.90;;;;;;5074945;28;20282;-78
2023/04/30 05:49:27;;;;;;;0.47;0.47;;;19.60;99.90;;;;;;5074718;28;20181;-77
2023/04/30 05:51:55;;;;;;;1.77;0.70;;;19.60;99.90;;;;;;5074933;28;20176;-72
2023/04/30 05:54:23;;;;;;;0.53;0.50;;;19.40;99.90;;;;;;5074724;28;20270;-77
2023/04/30 05:56:50;;;;;;;0.30;0.30;;;19.30;99.90;;;;;;5077484;28;20285;-76
2023/04/30 05:59:18;;;;;;;0.83;0.70;;;19.20;99.90;;;;;;5074861;28;20189;-78
2023/04/30 06:01:46;;;;;;;4.20;0.70;;;19.20;99.90;;;;;;5074848;28;20192;-78
2023/04/30 06:04:14;;;;;;;1.53;0.77;;;19.20;99.90;;;;;;5074389;28;20180;-77
2023/04/30 06:06:42;;;;;;;1.23;0.87;;;19.10;99.90;;;;;;5073921;28;20645;-78
2023/04/30 06:09:10;;;;;;;1.23;0.90;;;19.10;99.90;;;;;;5073568;28;20188;-76
2023/04/30 06:11:38;;;;;;;3.23;0.80;;;19.10;99.90;;;;;;5074197;28;20178;-77
2023/04/30 06:14:06;;;;;;;0.80;0.60;;;19.10;99.90;;;;;;5074518;28;20233;-76
2023/04/30 06:16:34;;;;;;;0.70;0.70;;;19.10;99.90;;;;;;5074373;28;20195;-77
2023/04/30 06:19:02;;;;;;;0.83;0.70;;;19.10;99.90;;;;;;5073432;28;20305;-78
2023/04/30 06:21:30;;;;;;;1.10;0.50;;;19.10;99.90;;;;;;5074272;28;20662;-75
2023/04/30 06:23:58;;;;;;;0.40;0.40;;;19.00;99.90;;;;;;5074257;28;20214;-76
2023/04/30 06:26:26;;;;;;;0.63;0.53;;;18.90;99.90;;;;;;5074220;28;20223;-78
2023/04/30 06:28:54;;;;;;;6.97;6.37;;;18.80;99.90;;;;;;5074483;28;20180;-79
2023/04/30 06:31:23;;;;;;;4.20;3.13;;;18.80;99.90;;;;;;5074134;28;20185;-77
2023/04/30 06:33:51;;;;;;;1.33;1.23;;;18.80;99.90;;;;;;5073953;28;20186;-76
2023/04/30 06:36:19;;;;;;;0.87;0.60;;;18.70;99.90;;;;;;5074428;28;20179;-79
2023/04/30 06:38:47;;;;;;;0.93;0.60;;;18.70;99.90;;;;;;5073657;28;20239;-78
2023/04/30 06:41:15;;;;;;;2.47;0.60;;;18.60;99.90;;;;;;5073631;28;20184;-79
2023/04/30 06:43:44;;;;;;;0.67;0.60;;;18.50;99.90;;;;;;5074014;28;20666;-77
2023/04/30 06:46:13;;;;;;;0.93;0.63;;;18.40;99.90;;;;;;5074241;28;20191;-78
2023/04/30 06:48:41;;;;;;;2.00;0.53;;;18.30;99.90;;;;;;5073554;28;20186;-78
2023/04/30 06:51:09;;;;;;;1.37;0.60;;;18.20;99.90;;;;;;5074013;28;20192;-79
2023/04/30 06:53:37;;;;;;;0.43;0.43;;;18.20;99.90;;;;;;5074376;28;20548;-77
2023/04/30 06:56:05;;;;;;;2.63;1.87;;;18.10;99.90;;;;;;5071876;28;20573;-76
2023/04/30 06:58:33;;;;;;;4.50;2.40;;;18.10;99.90;;;;;;5073569;28;20250;-79
2023/04/30 07:01:00;;;;;;;42.87;23.20;;;18.10;99.90;;;;;;5073657;28;20188;-79
2023/04/30 07:03:28;;;;;;;16.53;11.30;;;18.00;99.90;;;;;;5072808;28;20179;-76
2023/04/30 07:05:56;;;;;;;1.47;1.07;;;17.90;99.90;;;;;;5072824;28;20275;-80
2023/04/30 07:08:24;;;;;;;2.00;1.60;;;17.90;99.90;;;;;;5073672;28;20543;-75
2023/04/30 07:10:52;;;;;;;1.47;1.23;;;17.90;99.90;;;;;;5072885;28;20176;-74
2023/04/30 07:13:20;;;;;;;7.40;5.37;;;17.90;99.90;;;;;;5074397;28;20232;-80
2023/04/30 07:15:48;;;;;;;6.60;4.10;;;17.90;99.90;;;;;;5073587;28;20176;-77
2023/04/30 07:18:16;;;;;;;1.43;1.20;;;17.90;99.90;;;;;;5071636;28;20815;-77
2023/04/30 07:20:44;;;;;;;1.73;1.40;;;17.80;99.90;;;;;;5074403;28;20172;-77
2023/04/30 07:23:12;;;;;;;1.10;0.80;;;17.70;99.90;;;;;;5073447;28;20669;-78
2023/04/30 07:25:40;;;;;;;2.87;0.80;;;17.60;99.90;;;;;;5072663;28;20298;-74
2023/04/30 07:28:08;;;;;;;0.53;0.50;;;17.40;99.90;;;;;;5073020;28;20715;-68
2023/04/30 07:30:35;;;;;;;0.90;0.60;;;17.30;99.90;;;;;;5070434;28;20189;-72
2023/04/30 07:33:03;;;;;;;1.37;1.03;;;17.30;99.90;;;;;;5072966;28;20180;-72
2023/04/30 07:35:31;;;;;;;0.63;0.60;;;17.20;99.90;;;;;;5073151;28;20176;-71
2023/04/30 07:37:59;;;;;;;0.60;0.60;;;17.00;99.90;;;;;;5073043;28;20224;-72
2023/04/30 07:40:27;;;;;;;0.67;0.60;;;17.00;99.90;;;;;;5072505;28;20179;-74
2023/04/30 07:42:54;;;;;;;0.77;0.60;;;16.90;99.90;;;;;;5073032;28;20714;-74
2023/04/30 07:45:22;;;;;;;0.83;0.60;;;16.80;99.90;;;;;;5073004;28;20226;-73
2023/04/30 07:47:50;;;;;;;0.70;0.67;;;16.70;99.90;;;;;;5072476;28;20204;-76
2023/04/30 07:50:18;;;;;;;1.90;0.73;;;16.70;99.90;;;;;;5072898;28;20180;-77
2023/04/30 07:52:48;;;;;;;1.73;0.80;;;16.60;99.90;;;;;;5072789;28;20634;-78
2023/04/30 07:55:16;;;;;;;1.07;0.83;;;16.60;99.90;;;;;;5071365;28;20193;-78
2023/04/30 07:57:43;;;;;;;1.60;0.70;;;16.50;99.90;;;;;;5071995;28;20681;-70
2023/04/30 08:00:15;;;;;;;1.10;1.00;;;16.50;99.90;;;;;;5072783;28;20593;-70
2023/04/30 08:02:49;;;;;;;1.20;0.70;;;16.50;99.90;;;;;;5072463;28;20267;-70
2023/04/30 08:05:16;;;;;;;1.00;0.70;;;16.40;99.90;;;;;;5072319;28;20211;-79
2023/04/30 08:07:45;;;;;;;0.97;0.80;;;16.40;99.90;;;;;;5070718;28;20544;-77
2023/04/30 08:10:16;;;;;;;0.90;0.67;;;16.30;99.90;;;;;;5072036;28;20187;-77
2023/04/30 08:12:44;;;;;;;0.70;0.70;;;16.20;99.90;;;;;;5072718;28;20258;-76
2023/04/30 08:18:40;;;;;;;1.03;0.77;;;16.20;99.90;;;;;;5032541;28;20247;-71
2023/04/30 08:21:08;;;;;;;0.83;0.70;;;16.10;99.90;;;;;;5072699;28;20208;-75
2023/04/30 08:23:36;;;;;;;2.00;0.80;;;15.90;99.90;;;;;;5071737;28;20203;-76
2023/04/30 08:26:04;;;;;;;0.70;0.70;;;15.90;99.90;;;;;;5072409;28;20248;-75
2023/04/30 08:28:31;;;;;;;0.80;0.60;;;15.80;99.90;;;;;;5072294;28;20265;-77
2023/04/30 08:31:00;;;;;;;1.20;0.90;;;15.90;99.90;;;;;;5072029;28;20200;-78
2023/04/30 08:33:28;;;;;;;1.77;1.00;;;15.80;99.90;;;;;;5071261;28;20708;-77
2023/04/30 08:35:56;;;;;;;0.70;0.70;;;15.70;99.90;;;;;;5073020;28;20263;-74
2023/04/30 08:38:23;;;;;;;1.60;1.27;;;15.70;99.90;;;;;;5071558;28;20221;-76
2023/04/30 08:41:03;;;;;;;1.00;0.87;;;15.60;99.90;;;;;;5071476;28;20179;-75
2023/04/30 08:43:31;;;;;;;0.77;0.70;;;15.50;99.90;;;;;;5071934;28;20644;-76
2023/04/30 08:45:59;;;;;;;0.97;0.73;;;15.50;99.90;;;;;;5073922;28;20183;-75
2023/04/30 08:48:27;;;;;;;1.10;0.73;;;15.50;99.90;;;;;;5076531;28;20524;-74
2023/04/30 08:50:55;;;;;;;0.60;0.60;;;15.50;99.90;;;;;;5072652;28;20645;-78
2023/04/30 08:53:23;;;;;;;1.00;0.70;;;15.50;99.90;;;;;;5071690;28;20542;-76
2023/04/30 08:55:51;;;;;;;1.07;0.83;;;15.50;99.90;;;;;;5071784;28;20286;-74
2023/04/30 08:58:19;;;;;;;0.70;0.70;;;15.50;99.90;;;;;;5076934;28;20644;-78
2023/04/30 09:00:46;;;;;;;0.70;0.70;;;15.40;99.90;;;;;;5073617;28;20172;-75
2023/04/30 09:03:15;;;;;;;0.73;0.70;;;15.30;99.90;;;;;;5072407;28;20572;-75
2023/04/30 09:05:42;;;;;;;1.67;1.00;;;15.20;99.90;;;;;;5073667;28;20175;-76
2023/04/30 09:08:16;;;;;;;0.70;0.70;;;15.10;99.90;;;;;;5071440;28;20205;-76
2023/04/30 09:10:44;;;;;;;1.00;0.70;;;14.90;99.90;;;;;;5071786;28;20184;-74
2023/04/30 09:13:12;;;;;;;1.00;0.63;;;14.80;99.90;;;;;;5071747;28;20182;-76
2023/04/30 09:15:40;;;;;;;1.37;0.97;;;14.70;99.90;;;;;;5071372;28;20545;-76
2023/04/30 09:18:16;;;;;;;1.77;0.60;;;14.50;99.90;;;;;;5071055;28;20587;-74
2023/04/30 09:20:56;;;;;;;2.70;0.97;;;14.40;99.90;;;;;;5079185;28;20224;-74
2023/04/30 09:23:24;;;;;;;0.50;0.50;;;14.30;99.90;;;;;;5080167;28;20679;-73
2023/04/30 09:25:52;;;;;;;2.23;0.80;;;14.20;99.90;;;;;;5079723;28;20176;-77
2023/04/30 09:28:23;;;;;;;1.23;1.10;;;14.10;99.90;;;;;;5079110;28;20180;-74
2023/04/30 09:30:52;;;;;;;1.20;0.90;;;13.90;99.90;;;;;;5079470;28;20182;-73
2023/04/30 09:33:20;;;;;;;2.17;1.00;;;13.90;99.90;;;;;;5079303;28;20252;-75
2023/04/30 09:35:48;;;;;;;2.93;1.40;;;13.80;99.90;;;;;;5078840;28;20312;-75
2023/04/30 09:38:32;;;;;;;0.70;0.70;;;13.80;99.90;;;;;;5078904;28;20230;-75
2023/04/30 09:41:01;;;;;;;1.90;1.00;;;13.70;99.90;;;;;;5079069;28;20621;-76
2023/04/30 09:43:32;;;;;;;5.43;1.53;;;13.60;99.90;;;;;;5077952;28;20656;-76
2023/04/30 09:46:00;;;;;;;2.40;0.73;;;13.50;99.90;;;;;;5079614;28;20201;-74
2023/04/30 09:48:28;;;;;;;1.60;0.90;;;13.50;99.90;;;;;;5079016;28;20188;-74
2023/04/30 09:50:56;;;;;;;2.87;1.00;;;13.40;99.90;;;;;;5079306;28;20203;-75
2023/04/30 09:53:24;;;;;;;3.20;1.03;;;13.40;99.90;;;;;;5079246;28;20203;-74
2023/04/30 09:55:52;;;;;;;1.60;1.10;;;13.20;99.90;;;;;;5079849;28;20272;-76
2023/04/30 09:58:21;;;;;;;1.20;1.00;;;13.20;99.90;;;;;;5077796;28;20234;-74
2023/04/30 10:00:52;;;;;;;2.23;1.03;;;13.20;99.90;;;;;;5078662;28;20172;-75
2023/04/30 10:03:22;;;;;;;1.90;1.10;;;13.10;99.90;;;;;;5078721;28;20171;-73
2023/04/30 10:05:52;;;;;;;1.37;1.27;;;13.10;99.90;;;;;;5077447;28;20274;-75
2023/04/30 10:08:29;;;;;;;5.27;1.30;;;13.10;99.90;;;;;;5078374;28;20254;-76
2023/04/30 10:11:03;;;;;;;2.03;1.20;;;13.10;99.90;;;;;;5077438;28;20567;-72
2023/04/30 10:13:45;;;;;;;2.20;1.53;;;13.10;99.90;;;;;;5078224;28;20215;-75
2023/04/30 10:16:42;;;;;;;1.70;1.30;;;13.00;99.90;;;;;;5078613;28;20578;-76
2023/04/30 10:19:19;;;;;;;3.60;1.30;;;13.00;99.90;;;;;;5076289;28;20317;-73
2023/04/30 10:21:48;;;;;;;1.77;1.30;;;13.00;99.90;;;;;;5077347;28;20520;-76
2023/04/30 10:24:20;;;;;;;1.70;1.20;;;12.90;99.90;;;;;;5078468;28;20271;-75
2023/04/30 10:26:49;;;;;;;2.30;1.30;;;12.90;99.90;;;;;;5078573;28;20211;-75
2023/04/30 10:29:18;;;;;;;1.30;1.20;;;12.80;99.90;;;;;;5078428;28;20214;-75
2023/04/30 10:31:51;;;;;;;1.93;1.10;;;12.70;99.90;;;;;;5073390;28;20619;-73
2023/04/30 10:34:45;;;;;;;2.60;1.03;;;12.70;99.90;;;;;;5075255;28;20193;-73
2023/04/30 10:37:43;;;;;;;1.87;1.03;;;12.70;99.90;;;;;;5059263;28;20203;-75
2023/04/30 10:40:11;;;;;;;1.67;1.23;;;12.60;99.90;;;;;;5074683;28;20206;-74
2023/04/30 10:42:49;;;;;;;3.27;1.07;;;12.60;99.90;;;;;;5073379;28;20266;-76
2023/04/30 10:45:19;;;;;;;1.43;1.17;;;12.60;99.90;;;;;;5074952;28;20214;-74
2023/04/30 10:47:47;;;;;;;1.90;1.13;;;12.50;99.90;;;;;;5073648;28;20183;-74
2023/04/30 10:50:14;;;;;;;2.10;1.10;;;12.60;99.90;;;;;;5074567;28;20183;-73
2023/04/30 10:52:44;;;;;;;2.17;1.27;;;12.60;99.90;;;;;;5074854;28;20195;-75
2023/04/30 10:55:17;;;;;;;5.13;1.70;;;12.50;99.90;;;;;;5074943;28;20212;-72
2023/04/30 10:57:47;;;;;;;2.17;1.57;;;12.50;99.90;;;;;;5074971;28;20203;-77
2023/04/30 11:00:18;;;;;;;3.87;1.60;;;12.50;99.90;;;;;;5074471;28;20209;-75
2023/04/30 11:02:48;;;;;;;4.00;1.53;;;12.40;99.90;;;;;;5075022;28;20632;-72
2023/04/30 11:05:21;;;;;;;1.30;1.13;;;12.40;99.90;;;;;;5074859;28;20593;-71
2023/04/30 11:07:58;;;;;;;1.80;1.20;;;12.30;99.90;;;;;;5074976;28;20183;-75
2023/04/30 11:10:31;;;;;;;2.07;1.20;;;12.20;99.90;;;;;;5074839;28;20182;-73
2023/04/30 11:13:09;;;;;;;2.80;1.23;;;12.20;99.90;;;;;;5073797;28;20228;-75
2023/04/30 11:15:46;;;;;;;1.57;1.20;;;12.20;99.90;;;;;;5072879;28;20227;-74
2023/04/30 11:18:15;;;;;;;1.20;1.10;;;12.20;99.90;;;;;;5074613;28;20246;-76
2023/04/30 11:20:53;;;;;;;2.10;1.90;;;12.10;99.90;;;;;;5074705;28;20193;-76
2023/04/30 11:23:26;;;;;;;2.03;1.50;;;12.10;99.90;;;;;;5073394;28;20186;-76
2023/04/30 11:25:58;;;;;;;2.83;1.63;;;12.10;99.90;;;;;;5074517;28;20186;-74
2023/04/30 11:28:27;;;;;;;2.77;1.40;;;12.10;99.90;;;;;;5074542;28;20187;-75
2023/04/30 11:30:57;;;;;;;2.03;1.50;;;12.10;99.90;;;;;;5072871;28;20625;-74
2023/04/30 11:33:27;;;;;;;1.53;1.40;;;12.10;99.90;;;;;;5074297;28;20198;-74
2023/04/30 11:35:56;;;;;;;2.93;1.60;;;12.00;99.90;;;;;;5073916;28;20629;-73
2023/04/30 11:38:36;;;;;;;1.70;1.50;;;12.10;99.90;;;;;;5073847;28;20247;-75
2023/04/30 11:41:05;;;;;;;2.03;1.50;;;12.00;99.90;;;;;;5074222;28;20182;-73
2023/04/30 11:43:34;;;;;;;2.00;1.30;;;12.00;99.90;;;;;;5073036;28;20183;-75
2023/04/30 11:46:09;;;;;;;2.33;1.60;;;12.00;99.90;;;;;;5073715;28;20183;-73
2023/04/30 11:48:47;;;;;;;2.87;1.80;;;11.90;99.90;;;;;;5072594;28;20557;-74
2023/04/30 11:51:23;;;;;;;3.17;1.80;;;11.90;99.90;;;;;;5074055;28;20186;-73
2023/04/30 11:53:53;;;;;;;2.20;1.60;;;11.90;99.90;;;;;;5073644;28;20217;-74
2023/04/30 11:56:23;;;;;;;2.03;1.63;;;11.90;99.90;;;;;;5072918;28;20189;-72
2023/04/30 11:58:54;;;;;;;5.13;1.87;;;11.90;99.90;;;;;;5072957;28;20215;-74
2023/04/30 12:01:26;;;;;;;5.97;1.60;;;11.90;99.90;;;;;;5073238;28;20270;-73
2023/04/30 12:03:56;;;;;;;2.17;1.77;;;11.90;99.90;;;;;;5072298;28;20241;-72
2023/04/30 12:06:26;;;;;;;2.40;1.60;;;11.90;99.90;;;;;;5072537;28;20209;-72
2023/04/30 12:09:10;;;;;;;2.70;1.77;;;11.90;99.90;;;;;;5072024;28;20221;-73
2023/04/30 12:11:39;;;;;;;2.17;1.60;;;11.80;99.90;;;;;;5072910;28;20195;-74
2023/04/30 12:14:13;;;;;;;3.40;1.80;;;11.80;99.90;;;;;;5071042;28;20260;-73
2023/04/30 12:16:49;;;;;;;2.07;1.50;;;11.80;99.90;;;;;;5071425;28;20217;-74
2023/04/30 12:19:19;;;;;;;2.00;1.57;;;11.80;99.90;;;;;;5071489;28;20215;-74
2023/04/30 12:21:48;;;;;;;2.43;1.53;;;11.70;99.90;;;;;;5072139;28;20188;-75
2023/04/30 12:24:17;;;;;;;6.53;1.77;;;11.60;99.90;;;;;;5072445;28;20195;-74
2023/04/30 12:26:46;;;;;;;2.50;1.70;;;11.60;99.90;;;;;;5073281;28;20236;-76
2023/04/30 12:29:18;;;;;;;2.27;1.50;;;11.50;99.90;;;;;;5073326;28;20177;-74
2023/04/30 12:31:49;;;;;;;2.17;1.43;;;11.50;99.90;;;;;;5072505;28;20206;-74
2023/04/30 12:34:17;;;;;;;2.50;1.57;;;11.40;99.90;;;;;;5061237;28;20728;-72
2023/04/30 12:36:45;;;;;;;2.53;1.40;;;11.40;99.90;;;;;;5072551;28;20230;-74
2023/04/30 12:39:15;;;;;;;2.57;1.33;;;11.40;99.90;;;;;;5072340;28;20195;-74
2023/04/30 12:41:45;;;;;;;3.17;1.60;;;11.30;99.90;;;;;;5072557;28;20175;-74
2023/04/30 12:44:20;;;;;;;2.77;1.60;;;11.30;99.90;;;;;;5071099;28;20181;-75
2023/04/30 12:46:50;;;;;;;3.40;1.30;;;11.30;99.90;;;;;;5072975;28;20173;-75
2023/04/30 12:49:28;;;;;;;2.40;1.60;;;11.20;99.90;;;;;;5073202;28;20260;-74
2023/04/30 12:52:08;;;;;;;3.07;1.43;;;11.20;99.90;;;;;;5072385;28;20186;-72
2023/04/30 12:54:37;;;;;;;4.20;1.50;;;11.20;99.90;;;;;;5071686;28;20548;-72
2023/04/30 12:57:10;;;;;;;3.57;1.50;;;11.20;99.90;;;;;;5072255;28;20229;-74
2023/04/30 12:59:58;;;;;;;1.47;1.20;;;11.20;99.90;;;;;;5072261;28;20734;-72
2023/04/30 13:02:30;;;;;;;3.10;1.83;;;11.20;99.90;;;;;;5072493;28;20181;-73